Joliet, IL

2:32 AM CDT on August 03, 2015 (GMT -0500)
Warwick Subdivision, Joliet, IL | | Change Station
CLOSE
Current Station
Personal Weather Station
Location: Joliet, IL
Elevation: 591 ft
Nearby Weather Stations

Elev 591 ft 41.55 °N, 88.15 °W | Updated 2 minutes ago

Overcast
Overcast
67.3 °F
Feels Like 67.3 °F
N
0.0
Wind Variable Wind from North
Gusts 0.0 mph

Today
High -- | Low -- °F
--% Chance of Precip.
Yesterday
High -- | Low -- °F
Precip. -- in
5:48 AM 8:07 PM
Waning Gibbous, 89% visible
Pressure 29.76 in
Visibility 10.0 miles
Clouds Scattered Clouds 6000 ft
Overcast 7000 ft
Dew Point 65 °F
Humidity 93%
Rainfall 0.12 in
Snow Depth Not available.
UV 0 out of 12
Pollen 8.00 out of 12
Air Quality Not available.
Flu Activity Not available.
METAR KJOT 030715Z AUTO 00000KT 10SM SCT060 OVC070 21/19 A2976 RMK AO2 LTG DSNT E T02110194

More Conditions Fewer Conditions

Pressure 29.76 in
Visibility 10.0 miles
Clouds Scattered Clouds 6000 ft
Overcast 7000 ft
Dew Point 65 °F
Humidity 93%
Rainfall 0.12 in
Snow Depth Not available.
UV 0 out of 12
Pollen 8.00 out of 12
Air Quality Not available.
Flu Activity Not available.
METAR KJOT 030715Z AUTO 00000KT 10SM SCT060 OVC070 21/19 A2976 RMK AO2 LTG DSNT E T02110194

More Conditions Fewer Conditions

10-Day Weather Forecast

×

Almanac

Astronomy

Aug. 03, 2015 Rise Set
Actual Time
Civil Twilight
Nautical Twilight
Astronomical Twilight
Moon
Length of Visible Light
Length of Day
Tomorrow will be .
, % of the Moon is Illuminated

Today's Extremes

State Highs State Lows

Community

WunderPhotos

Upload Photos

1,843,595 photos uploaded!

WunderBlogs® & News

Nearby

Air Quality

  Air Quality AQ Index Pollutant
Not available.

Snow Depth

Station Depth Elevation

Earthquake Activity

City Distance Mag. Time & Date
Minimum magnitude displayed is 2.5.

Coastal Water Temperatures

Place Temperature

Stations

Nearby Weather Stations

Station Location Temp. Windchill Dew Point Humidity Wind Precip. Elev Updated Type